Time;durP1;ratioP1;P1;durP2;ratioP2;P2;SDS_P1;SDS_P2;PMS_P1;PMS_P2;Temp;Humidity;BMP_temperature;BMP_pressure;BME280_temperature;BME280_humidity;BME280_pressure;Samples;Min_cycle;Max_cycle;Signal;HPM_P1;HPM_P2
2022/10/11 00:00:08;;;;;;;22.30;7.63;;;;;12.20;94578.00;;;;7396690;19;20155;-76
2022/10/11 00:02:45;;;;;;;23.80;8.38;;;;;12.20;94591.00;;;;7397162;19;20174;-74
2022/10/11 00:05:17;;;;;;;17.58;7.85;;;;;12.30;94594.00;;;;7396015;19;20674;-76
2022/10/11 00:07:44;;;;;;;16.58;7.97;;;;;12.30;94596.00;;;;7396393;19;20489;-75
2022/10/11 00:10:18;;;;;;;11.52;7.70;;;;;12.30;94599.00;;;;7398027;19;20163;-76
2022/10/11 00:12:46;;;;;;;16.15;8.18;;;;;12.30;94603.00;;;;7397357;19;20148;-77
2022/10/11 00:15:17;;;;;;;17.58;8.30;;;;;12.50;94602.00;;;;7396678;19;20144;-75
2022/10/11 00:17:51;;;;;;;18.38;8.80;;;;;12.40;94597.00;;;;7394243;19;20129;-74
2022/10/11 00:20:19;;;;;;;20.25;8.68;;;;;12.50;94598.00;;;;7394748;19;20149;-76
2022/10/11 00:22:48;;;;;;;16.15;8.20;;;;;12.50;94595.00;;;;7397839;19;20163;-76
2022/10/11 00:25:29;;;;;;;19.95;8.35;;;;;12.40;94597.00;;;;7393678;19;20153;-75
2022/10/11 00:28:04;;;;;;;15.90;7.95;;;;;12.40;94602.00;;;;7395173;19;20167;-76
2022/10/11 00:30:42;;;;;;;21.58;9.60;;;;;12.50;94602.00;;;;7397364;19;20133;-75
2022/10/11 00:33:16;;;;;;;19.52;8.90;;;;;12.40;94607.00;;;;7396564;19;20133;-76
2022/10/11 00:35:53;;;;;;;13.45;9.48;;;;;12.40;94604.00;;;;7395142;19;20150;-75
2022/10/11 00:38:20;;;;;;;15.70;9.48;;;;;12.40;94612.00;;;;7395505;19;20163;-75
2022/10/11 00:40:47;;;;;;;19.27;10.05;;;;;12.40;94611.00;;;;7397483;19;20156;-75
2022/10/11 00:43:25;;;;;;;18.17;9.15;;;;;12.40;94611.00;;;;7394930;19;20145;-75
2022/10/11 00:45:55;;;;;;;16.38;8.80;;;;;12.40;94611.00;;;;7395071;19;20141;-75
2022/10/11 00:48:41;;;;;;;16.58;8.65;;;;;12.40;94605.00;;;;7395963;19;20163;-75
2022/10/11 00:51:27;;;;;;;16.48;7.57;;;;;12.50;94608.00;;;;7392441;19;20186;-76
2022/10/11 00:54:02;;;;;;;15.20;8.60;;;;;12.40;94616.00;;;;7395715;19;20471;-76
2022/10/11 00:56:36;;;;;;;20.83;9.65;;;;;12.50;94615.00;;;;7395332;19;20156;-74
2022/10/11 00:59:19;;;;;;;15.75;8.20;;;;;12.50;94614.00;;;;7391590;19;20148;-75
2022/10/11 01:01:47;;;;;;;18.40;8.77;;;;;12.50;94616.00;;;;7395315;19;20141;-76
2022/10/11 01:04:21;;;;;;;21.63;9.85;;;;;12.50;94619.00;;;;7394354;19;20144;-75
2022/10/11 01:06:50;;;;;;;20.50;9.77;;;;;12.50;94613.00;;;;7396114;19;20132;-74
2022/10/11 01:09:22;;;;;;;21.80;10.73;;;;;12.50;94617.00;;;;7394383;19;20468;-75
2022/10/11 01:11:59;;;;;;;15.98;10.60;;;;;12.50;94616.00;;;;7394654;19;20156;-75
2022/10/11 01:14:35;;;;;;;19.50;10.15;;;;;12.50;94617.00;;;;7395352;19;20212;-76
2022/10/11 01:17:19;;;;;;;21.75;10.18;;;;;12.50;94621.00;;;;7392667;19;20144;-75
2022/10/11 01:20:06;;;;;;;24.52;11.35;;;;;12.50;94615.00;;;;7392316;19;20168;-74
2022/10/11 01:23:10;;;;;;;17.80;9.82;;;;;12.50;94614.00;;;;7395250;19;20149;-74
2022/10/11 01:26:11;;;;;;;15.32;9.77;;;;;12.50;94613.00;;;;7394205;19;20208;-76
2022/10/11 01:29:24;;;;;;;17.08;9.70;;;;;12.40;94613.00;;;;7396488;19;20137;-76
2022/10/11 01:32:20;;;;;;;18.10;10.15;;;;;12.40;94622.00;;;;7394940;19;20152;-76
2022/10/11 01:35:05;;;;;;;15.25;9.70;;;;;12.50;94619.00;;;;7395175;19;20154;-76
2022/10/11 01:37:40;;;;;;;16.98;11.00;;;;;12.50;94615.00;;;;7395287;19;20145;-75
2022/10/11 01:40:23;;;;;;;21.55;12.27;;;;;12.50;94616.00;;;;7391707;19;20157;-77
2022/10/11 01:42:52;;;;;;;25.17;12.35;;;;;12.50;94615.00;;;;7394604;19;20144;-76
2022/10/11 01:45:32;;;;;;;23.95;12.63;;;;;12.50;94613.00;;;;7392158;19;20160;-74
2022/10/11 01:48:08;;;;;;;20.83;11.88;;;;;12.40;94612.00;;;;7393920;19;20145;-75
2022/10/11 01:51:00;;;;;;;25.70;13.35;;;;;12.40;94613.00;;;;7396308;19;20137;-75
2022/10/11 01:54:15;;;;;;;24.77;13.32;;;;;12.30;94613.00;;;;7390955;19;20169;-75
2022/10/11 01:57:03;;;;;;;32.53;15.57;;;;;12.30;94611.00;;;;7395750;19;20208;-74
2022/10/11 01:59:57;;;;;;;28.67;15.88;;;;;12.30;94608.00;;;;7391613;19;20192;-76
2022/10/11 02:02:46;;;;;;;31.05;17.45;;;;;12.30;94606.00;;;;7394786;19;20188;-74
2022/10/11 02:05:25;;;;;;;32.78;17.27;;;;;12.20;94612.00;;;;7391305;19;20149;-75
2022/10/11 02:08:16;;;;;;;24.35;15.82;;;;;12.20;94612.00;;;;7392723;19;20147;-75
2022/10/11 02:10:56;;;;;;;36.75;19.52;;;;;12.30;94613.00;;;;7393276;19;20153;-75
2022/10/11 02:13:54;;;;;;;28.70;15.93;;;;;12.30;94613.00;;;;7391346;19;20129;-75
2022/10/11 02:16:28;;;;;;;36.80;17.75;;;;;12.20;94615.00;;;;7391236;19;20149;-75
2022/10/11 02:19:09;;;;;;;36.30;17.73;;;;;12.20;94620.00;;;;7393610;19;20149;-73
2022/10/11 02:21:40;;;;;;;38.00;18.40;;;;;12.20;94617.00;;;;7390389;19;20148;-75
2022/10/11 02:24:37;;;;;;;32.53;18.77;;;;;12.10;94608.00;;;;7391272;19;20152;-75
2022/10/11 02:27:17;;;;;;;48.42;21.88;;;;;12.10;94610.00;;;;7393032;19;20176;-75
2022/10/11 02:29:58;;;;;;;37.65;21.70;;;;;12.20;94608.00;;;;7392886;19;20217;-75
2022/10/11 02:32:27;;;;;;;43.63;22.42;;;;;12.00;94604.00;;;;7393380;19;20157;-75
2022/10/11 02:35:04;;;;;;;46.00;23.75;;;;;12.10;94606.00;;;;7393683;19;20124;-74
2022/10/11 02:37:52;;;;;;;48.67;22.50;;;;;12.00;94608.00;;;;7390681;19;20580;-75
2022/10/11 02:40:32;;;;;;;55.42;23.92;;;;;11.90;94611.00;;;;7392107;19;20159;-76
2022/10/11 02:43:04;;;;;;;40.63;24.42;;;;;11.80;94606.00;;;;7394426;19;20128;-75
2022/10/11 02:45:43;;;;;;;53.42;25.20;;;;;11.90;94607.00;;;;7391853;19;20182;-74
2022/10/11 02:48:12;;;;;;;61.47;26.38;;;;;11.80;94598.00;;;;7393547;19;20133;-75
2022/10/11 02:50:46;;;;;;;54.30;27.88;;;;;11.80;94608.00;;;;7393960;19;20143;-75
2022/10/11 02:53:13;;;;;;;60.20;28.77;;;;;11.90;94613.00;;;;7389978;19;20153;-74
2022/10/11 02:55:40;;;;;;;66.63;28.27;;;;;12.00;94611.00;;;;7390815;19;20172;-74
2022/10/11 02:58:14;;;;;;;71.45;29.27;;;;;12.00;94606.00;;;;7394122;19;20434;-74
2022/10/11 03:00:42;;;;;;;66.78;28.85;;;;;11.90;94611.00;;;;7391289;19;20641;-75
2022/10/11 03:03:10;;;;;;;74.90;31.40;;;;;11.90;94618.00;;;;7389135;19;20224;-74
2022/10/11 03:05:49;;;;;;;67.78;30.35;;;;;11.80;94621.00;;;;7390711;19;20579;-74
2022/10/11 03:08:17;;;;;;;59.05;28.95;;;;;11.80;94624.00;;;;7392109;19;20493;-74
2022/10/11 03:10:48;;;;;;;60.65;27.90;;;;;11.80;94623.00;;;;7391951;19;20244;-76
2022/10/11 03:13:21;;;;;;;68.93;30.45;;;;;11.80;94619.00;;;;7388722;19;20131;-74
2022/10/11 03:15:50;;;;;;;56.03;28.60;;;;;11.80;94615.00;;;;7391126;19;20145;-75
2022/10/11 03:18:34;;;;;;;61.58;28.65;;;;;11.70;94621.00;;;;7393526;19;20128;-73
2022/10/11 03:21:08;;;;;;;68.45;28.65;;;;;11.70;94622.00;;;;7389221;19;20155;-74
2022/10/11 03:23:38;;;;;;;60.10;27.05;;;;;11.60;94614.00;;;;7388702;19;20162;-74
2022/10/11 03:26:06;;;;;;;49.88;24.83;;;;;11.60;94614.00;;;;7390577;19;20240;-74
2022/10/11 03:28:40;;;;;;;55.22;24.35;;;;;11.50;94620.00;;;;7397275;19;20163;-74
2022/10/11 03:31:12;;;;;;;64.35;24.50;;;;;11.40;94623.00;;;;7395342;19;20147;-73
2022/10/11 03:33:40;;;;;;;52.03;24.13;;;;;11.40;94624.00;;;;7397847;19;20587;-74
2022/10/11 03:36:14;;;;;;;48.42;24.05;;;;;11.30;94637.00;;;;7398790;19;20165;-74
2022/10/11 03:38:41;;;;;;;52.25;24.48;;;;;11.30;94628.00;;;;7398950;19;20137;-74
2022/10/11 03:41:08;;;;;;;45.45;23.15;;;;;11.40;94630.00;;;;7393647;19;20152;-75
2022/10/11 03:43:42;;;;;;;43.90;22.88;;;;;11.30;94635.00;;;;7397281;19;20129;-74
2022/10/11 03:46:10;;;;;;;44.00;20.02;;;;;11.40;94638.00;;;;7397162;19;20160;-74
2022/10/11 03:48:38;;;;;;;46.78;22.65;;;;;11.40;94634.00;;;;7398523;19;20132;-75
2022/10/11 03:51:13;;;;;;;42.08;21.75;;;;;11.40;94635.00;;;;7395852;19;20510;-74
2022/10/11 03:53:41;;;;;;;46.00;22.25;;;;;11.50;94638.00;;;;7394332;19;20155;-74
2022/10/11 03:56:08;;;;;;;56.03;25.42;;;;;11.40;94639.00;;;;7396919;19;20129;-74
2022/10/11 03:58:43;;;;;;;57.10;22.77;;;;;11.50;94643.00;;;;7400910;19;20128;-76
2022/10/11 04:01:10;;;;;;;46.15;23.55;;;;;11.50;94639.00;;;;7392181;19;20152;-73
2022/10/11 04:03:40;;;;;;;48.05;24.40;;;;;11.50;94639.00;;;;7396368;19;20145;-74
2022/10/11 04:06:13;;;;;;;46.88;25.13;;;;;11.40;94647.00;;;;7398267;19;20146;-74
2022/10/11 04:08:41;;;;;;;41.90;23.77;;;;;11.40;94644.00;;;;7397888;19;20159;-73
2022/10/11 04:11:08;;;;;;;42.17;21.98;;;;;11.50;94655.00;;;;7396117;19;20129;-75
2022/10/11 04:13:42;;;;;;;40.03;23.05;;;;;11.50;94649.00;;;;7397143;19;20120;-73
2022/10/11 04:16:10;;;;;;;48.92;26.60;;;;;11.60;94652.00;;;;7395911;19;20598;-74
2022/10/11 04:18:40;;;;;;;44.17;24.55;;;;;11.70;94654.00;;;;7397428;19;20141;-74
2022/10/11 04:21:14;;;;;;;47.85;23.73;;;;;11.50;94656.00;;;;7396765;19;20611;-75
2022/10/11 04:23:41;;;;;;;38.67;22.10;;;;;11.40;94655.00;;;;7394856;19;20151;-74
2022/10/11 04:26:11;;;;;;;35.03;21.45;;;;;11.40;94647.00;;;;7396243;19;20145;-74
2022/10/11 04:28:51;;;;;;;44.80;22.00;;;;;11.40;94649.00;;;;7397023;19;20135;-74
2022/10/11 04:31:19;;;;;;;46.47;22.35;;;;;11.50;94647.00;;;;7398143;19;20248;-74
2022/10/11 04:33:53;;;;;;;47.35;23.90;;;;;11.40;94652.00;;;;7395835;19;20176;-73
2022/10/11 04:36:23;;;;;;;39.13;23.00;;;;;11.40;94655.00;;;;7396854;19;20145;-74
2022/10/11 04:38:50;;;;;;;45.33;22.98;;;;;11.30;94650.00;;;;7395742;19;20160;-73
2022/10/11 04:41:24;;;;;;;40.67;21.73;;;;;11.40;94663.00;;;;7395644;19;20121;-73
2022/10/11 04:43:52;;;;;;;40.90;21.48;;;;;11.40;94654.00;;;;7395214;19;20152;-73
2022/10/11 04:46:19;;;;;;;40.92;22.90;;;;;11.40;94659.00;;;;7396513;19;20535;-74
2022/10/11 04:48:55;;;;;;;45.75;23.02;;;;;11.40;94662.00;;;;7396837;19;20129;-73
2022/10/11 04:51:26;;;;;;;45.47;24.02;;;;;11.40;94662.00;;;;7394558;19;20172;-72
2022/10/11 04:53:53;;;;;;;43.15;24.30;;;;;11.40;94666.00;;;;7396684;19;20133;-74
2022/10/11 04:56:29;;;;;;;44.30;22.85;;;;;11.30;94666.00;;;;7394499;19;20148;-74
2022/10/11 04:58:56;;;;;;;38.95;23.30;;;;;11.40;94672.00;;;;7396344;19;20135;-74
2022/10/11 05:01:24;;;;;;;48.42;23.27;;;;;11.40;94664.00;;;;7394424;19;20152;-75
2022/10/11 05:03:58;;;;;;;39.35;20.38;;;;;11.40;94673.00;;;;7385701;19;20220;-73
2022/10/11 05:06:25;;;;;;;41.15;22.27;;;;;11.40;94664.00;;;;7395687;19;20188;-74
2022/10/11 05:08:55;;;;;;;42.58;21.92;;;;;11.40;94672.00;;;;7395566;19;20158;-74
2022/10/11 05:11:29;;;;;;;44.03;22.42;;;;;11.40;94669.00;;;;7395179;19;20173;-75
2022/10/11 05:13:56;;;;;;;41.25;22.95;;;;;11.40;94678.00;;;;7393965;19;20168;-74
2022/10/11 05:16:24;;;;;;;37.05;21.98;;;;;11.40;94672.00;;;;7394878;19;20161;-74
2022/10/11 05:19:00;;;;;;;39.47;23.55;;;;;11.40;94673.00;;;;7396613;19;20529;-74
2022/10/11 05:21:30;;;;;;;42.38;22.70;;;;;11.40;94679.00;;;;7392377;19;20147;-73
2022/10/11 05:23:58;;;;;;;49.97;24.45;;;;;11.30;94676.00;;;;7393167;19;20144;-73
2022/10/11 05:26:47;;;;;;;45.58;24.17;;;;;11.30;94678.00;;;;7392208;19;20192;-73
2022/10/11 05:29:24;;;;;;;42.95;24.02;;;;;11.30;94685.00;;;;7392569;19;20155;-74
2022/10/11 05:31:59;;;;;;;52.78;25.42;;;;;11.30;94677.00;;;;7394568;19;20163;-74
2022/10/11 05:34:29;;;;;;;49.97;26.33;;;;;11.30;94688.00;;;;7393739;19;20132;-74
2022/10/11 05:36:56;;;;;;;56.90;25.02;;;;;11.30;94684.00;;;;7395057;19;20156;-73
2022/10/11 05:39:31;;;;;;;48.63;26.52;;;;;11.30;94683.00;;;;7392421;19;20145;-73
2022/10/11 05:41:58;;;;;;;58.38;27.48;;;;;11.30;94694.00;;;;7392614;19;20148;-74
2022/10/11 05:44:26;;;;;;;79.05;30.45;;;;;11.10;94698.00;;;;7393028;19;21063;-73
2022/10/11 05:47:00;;;;;;;61.95;30.02;;;;;11.10;94701.00;;;;7394631;19;20148;-73
2022/10/11 05:49:28;;;;;;;50.10;27.02;;;;;11.20;94706.00;;;;7391843;19;20165;-74
2022/10/11 05:51:55;;;;;;;59.20;27.17;;;;;11.20;94699.00;;;;7392691;19;20177;-73
2022/10/11 05:54:30;;;;;;;55.30;27.02;;;;;11.20;94709.00;;;;7392582;19;20148;-74
2022/10/11 05:56:57;;;;;;;44.05;25.83;;;;;11.20;94706.00;;;;7392353;19;20163;-74
2022/10/11 05:59:27;;;;;;;49.28;26.55;;;;;11.20;94706.00;;;;7391772;19;20141;-74
2022/10/11 06:02:02;;;;;;;46.35;24.83;;;;;11.20;94715.00;;;;7391411;19;20152;-74
2022/10/11 06:04:30;;;;;;;39.30;22.85;;;;;11.20;94658.00;;;;7393281;19;20141;-74
2022/10/11 06:06:57;;;;;;;53.42;26.27;;;;;11.20;94719.00;;;;7393792;19;20243;-73
2022/10/11 06:09:38;;;;;;;48.72;25.02;;;;;11.10;94719.00;;;;7392490;19;20151;-74
2022/10/11 06:12:06;;;;;;;47.08;23.38;;;;;11.20;94720.00;;;;7391818;19;20152;-74
2022/10/11 06:14:35;;;;;;;45.33;23.80;;;;;11.20;94726.00;;;;7387525;19;20139;-73
2022/10/11 06:17:10;;;;;;;47.67;25.40;;;;;11.20;94726.00;;;;7389883;19;20144;-73
2022/10/11 06:19:37;;;;;;;55.95;30.15;;;;;11.20;94727.00;;;;7389163;19;20152;-73
2022/10/11 06:22:05;;;;;;;52.38;26.40;;;;;11.20;94735.00;;;;7391002;19;20145;-73
2022/10/11 06:24:39;;;;;;;55.53;26.88;;;;;11.20;94734.00;;;;7389308;19;20177;-74
2022/10/11 06:27:13;;;;;;;86.97;31.52;;;;;11.20;94730.00;;;;7387081;19;20165;-73
2022/10/11 06:29:47;;;;;;;61.97;29.92;;;;;11.20;94735.00;;;;7393842;19;20152;-74
2022/10/11 06:32:17;;;;;;;86.38;31.73;;;;;11.30;94734.00;;;;7391727;19;20655;-74
2022/10/11 06:34:44;;;;;;;186.07;32.17;;;;;11.20;94739.00;;;;7388856;19;20156;-74
2022/10/11 06:37:19;;;;;;;231.98;33.78;;;;;11.30;94744.00;;;;7386992;19;20155;-74
2022/10/11 06:39:46;;;;;;;208.18;32.80;;;;;11.30;94742.00;;;;7389328;19;20499;-75
2022/10/11 06:42:14;;;;;;;85.13;30.98;;;;;11.20;94748.00;;;;7389063;19;20156;-76
2022/10/11 06:44:48;;;;;;;78.70;29.30;;;;;11.20;94746.00;;;;7390285;19;20150;-75
2022/10/11 06:47:15;;;;;;;172.85;30.80;;;;;11.20;94739.00;;;;7389573;19;20212;-75
2022/10/11 06:49:48;;;;;;;324.17;32.03;;;;;11.30;94743.00;;;;7390876;19;20484;-74
2022/10/11 06:52:22;;;;;;;359.27;34.90;;;;;11.30;94754.00;;;;7389267;19;20590;-75
2022/10/11 06:54:50;;;;;;;487.13;40.92;;;;;11.20;94756.00;;;;7391228;19;20148;-74
2022/10/11 06:57:17;;;;;;;608.40;40.28;;;;;11.20;94754.00;;;;7391526;19;20535;-74
2022/10/11 06:59:51;;;;;;;412.83;35.63;;;;;11.20;94759.00;;;;7391206;19;20147;-75
2022/10/11 07:02:23;;;;;;;681.45;40.08;;;;;11.20;94761.00;;;;7390500;19;20208;-76
2022/10/11 07:04:51;;;;;;;835.90;56.42;;;;;11.20;94762.00;;;;7398767;19;20510;-74
2022/10/11 07:07:25;;;;;;;445.35;40.00;;;;;11.20;94768.00;;;;7397708;19;20671;-75
2022/10/11 07:09:52;;;;;;;308.10;35.47;;;;;11.20;94769.00;;;;7397196;19;20144;-74
2022/10/11 07:12:20;;;;;;;459.73;40.10;;;;;11.30;94776.00;;;;7396930;19;20930;-75
2022/10/11 07:14:59;;;;;;;437.45;39.92;;;;;11.20;94774.00;;;;7398970;19;20125;-74
2022/10/11 07:17:28;;;;;;;70.65;30.42;;;;;11.30;94779.00;;;;7397004;19;20552;-75
2022/10/11 07:19:56;;;;;;;66.32;30.77;;;;;11.40;94772.00;;;;7394541;19;20161;-75
2022/10/11 07:22:30;;;;;;;56.95;32.15;;;;;11.40;94775.00;;;;7394186;19;20604;-74
2022/10/11 07:24:57;;;;;;;60.40;30.05;;;;;11.50;94773.00;;;;7396699;19;20140;-76
2022/10/11 07:27:25;;;;;;;64.88;30.85;;;;;11.50;94781.00;;;;7392641;19;20182;-75
2022/10/11 07:29:59;;;;;;;61.38;29.63;;;;;11.40;94779.00;;;;7393425;19;20238;-75
2022/10/11 07:32:26;;;;;;;62.95;29.77;;;;;11.40;94787.00;;;;7397606;19;20230;-75
2022/10/11 07:34:55;;;;;;;89.25;31.48;;;;;11.40;94785.00;;;;7398262;19;20148;-76
2022/10/11 07:37:29;;;;;;;68.82;30.60;;;;;11.40;94790.00;;;;7397851;19;20164;-73
2022/10/11 07:39:56;;;;;;;64.68;29.88;;;;;11.60;94792.00;;;;7396149;19;20483;-74
2022/10/11 07:42:24;;;;;;;57.58;29.60;;;;;11.60;94790.00;;;;7393955;19;20604;-76
2022/10/11 07:44:58;;;;;;;78.55;29.88;;;;;11.50;94790.00;;;;7396505;19;20224;-75
2022/10/11 07:47:25;;;;;;;114.03;31.45;;;;;11.50;94791.00;;;;7393076;19;20153;-74
2022/10/11 07:49:57;;;;;;;65.07;29.75;;;;;11.50;94793.00;;;;7395290;19;20160;-77
2022/10/11 07:52:39;;;;;;;237.27;33.63;;;;;11.60;94798.00;;;;7394378;19;20515;-74
2022/10/11 07:55:07;;;;;;;83.47;28.75;;;;;11.50;94803.00;;;;7394922;19;20140;-75
2022/10/11 07:57:47;;;;;;;52.05;26.52;;;;;11.50;94799.00;;;;7395766;19;20144;-74
2022/10/11 08:00:15;;;;;;;384.20;38.95;;;;;11.40;94796.00;;;;7395513;19;20151;-74
2022/10/11 08:02:50;;;;;;;756.28;42.03;;;;;11.30;94804.00;;;;7394034;19;20152;-74
2022/10/11 08:05:17;;;;;;;637.97;46.90;;;;;11.30;94805.00;;;;7395066;19;20576;-75
2022/10/11 08:07:45;;;;;;;165.88;29.08;;;;;11.30;94797.00;;;;7397341;19;20611;-73
2022/10/11 08:10:21;;;;;;;243.43;31.33;;;;;11.40;94799.00;;;;7396169;19;20132;-73
2022/10/11 08:12:49;;;;;;;418.08;34.65;;;;;11.50;94797.00;;;;7395291;19;20635;-74
2022/10/11 08:15:17;;;;;;;522.83;35.35;;;;;11.60;94800.00;;;;7391566;19;20125;-73
2022/10/11 08:17:51;;;;;;;1492.78;54.47;;;;;11.40;94810.00;;;;7394986;19;20220;-72
2022/10/11 08:20:19;;;;;;;799.33;38.80;;;;;11.40;94802.00;;;;7395712;19;20145;-75
2022/10/11 08:22:46;;;;;;;983.72;47.22;;;;;11.30;94804.00;;;;7395509;19;20137;-75
2022/10/11 08:25:28;;;;;;;576.72;34.67;;;;;11.40;94800.00;;;;7395078;19;20136;-73
2022/10/11 08:28:03;;;;;;;596.58;35.22;;;;;11.40;94807.00;;;;7394936;19;20687;-74
2022/10/11 08:30:37;;;;;;;915.72;42.25;;;;;11.30;94807.00;;;;7395841;19;20140;-73
2022/10/11 08:33:05;;;;;;;1148.38;51.55;;;;;11.40;94811.00;;;;7395600;19;20153;-73
2022/10/11 08:35:35;;;;;;;520.00;27.60;;;;;11.50;94804.00;;;;7396971;19;20155;-73
2022/10/11 08:38:10;;;;;;;726.97;37.15;;;;;11.60;94795.00;;;;7395660;19;20140;-71
2022/10/11 08:40:44;;;;;;;194.80;27.63;;;;;11.80;94805.00;;;;7395095;19;20172;-72
2022/10/11 08:43:46;;;;;;;492.85;36.72;;;;;12.10;94799.00;;;;7391211;19;20160;-72
2022/10/11 08:46:15;;;;;;;368.73;29.20;;;;;12.00;94799.00;;;;7395093;19;20132;-73
2022/10/11 08:48:50;;;;;;;701.75;39.47;;;;;12.00;94797.00;;;;7394576;19;20152;-75
2022/10/11 08:51:32;;;;;;;674.92;38.65;;;;;12.00;94799.00;;;;7393230;19;20204;-73
2022/10/11 08:54:19;;;;;;;559.47;30.20;;;;;11.90;94803.00;;;;7393544;19;20148;-73
2022/10/11 08:56:48;;;;;;;313.67;28.85;;;;;11.80;94809.00;;;;7394137;19;20144;-74
2022/10/11 08:59:45;;;;;;;241.20;28.75;;;;;12.00;94798.00;;;;7390836;19;20171;-72
2022/10/11 09:02:34;;;;;;;442.50;30.98;;;;;11.90;94805.00;;;;7393463;19;20183;-72
2022/10/11 09:05:59;;;;;;;144.98;24.45;;;;;11.90;94808.00;;;;7391326;19;20147;-72
2022/10/11 09:08:33;;;;;;;432.33;31.13;;;;;12.10;94805.00;;;;7393555;19;20511;-73
2022/10/11 09:11:25;;;;;;;532.17;32.28;;;;;11.90;94805.00;;;;7392271;19;20137;-72
2022/10/11 09:13:52;;;;;;;131.60;24.38;;;;;12.00;94816.00;;;;7393980;19;20158;-72
2022/10/11 09:16:45;;;;;;;175.45;26.35;;;;;11.90;94813.00;;;;7393656;19;20591;-73
2022/10/11 09:19:41;;;;;;;243.27;27.27;;;;;11.90;94818.00;;;;7391318;19;20212;-73
2022/10/11 09:22:30;;;;;;;312.33;29.58;;;;;11.90;94817.00;;;;7391306;19;20155;-72
2022/10/11 09:25:04;;;;;;;52.78;25.80;;;;;11.90;94816.00;;;;7392261;19;20191;-73
2022/10/11 09:28:16;;;;;;;132.93;26.05;;;;;11.80;94816.00;;;;7390397;19;20156;-72
2022/10/11 09:30:53;;;;;;;79.22;24.75;;;;;11.80;94826.00;;;;7393045;19;20152;-72
2022/10/11 09:33:41;;;;;;;246.95;25.95;;;;;11.80;94824.00;;;;7393984;19;20157;-73
2022/10/11 09:36:36;;;;;;;147.32;25.58;;;;;11.90;94814.00;;;;7393611;19;20172;-72
2022/10/11 09:39:34;;;;;;;71.28;24.40;;;;;12.00;94809.00;;;;7390849;19;20156;-73
2022/10/11 09:42:06;;;;;;;407.23;30.35;;;;;11.90;94816.00;;;;7392175;19;20225;-73
2022/10/11 09:44:46;;;;;;;331.27;27.85;;;;;12.00;94810.00;;;;7394759;19;20554;-73
2022/10/11 09:47:31;;;;;;;64.00;23.17;;;;;11.90;94817.00;;;;7391925;19;20149;-72
2022/10/11 09:50:19;;;;;;;42.47;24.20;;;;;11.90;94816.00;;;;7393056;19;20184;-72
2022/10/11 09:52:52;;;;;;;44.90;23.60;;;;;11.80;94812.00;;;;7391812;19;20663;-74
2022/10/11 09:55:49;;;;;;;51.55;23.45;;;;;11.90;94813.00;;;;7392987;19;20132;-72
2022/10/11 09:58:25;;;;;;;166.82;25.83;;;;;12.00;94826.00;;;;7393576;19;20158;-72
2022/10/11 10:01:07;;;;;;;201.30;26.90;;;;;12.00;94824.00;;;;7391512;19;20164;-72
2022/10/11 10:03:40;;;;;;;128.05;26.77;;;;;12.00;94824.00;;;;7389548;19;20550;-72
2022/10/11 10:06:23;;;;;;;42.10;22.33;;;;;12.00;94817.00;;;;7389683;19;20151;-72
2022/10/11 10:09:29;;;;;;;47.15;23.05;;;;;12.00;94824.00;;;;7386127;19;20156;-71
2022/10/11 10:12:20;;;;;;;79.68;25.38;;;;;12.10;94829.00;;;;7392314;19;20128;-72
2022/10/11 10:15:05;;;;;;;61.28;24.33;;;;;12.10;94828.00;;;;7391082;19;20771;-73
2022/10/11 10:17:48;;;;;;;48.47;23.65;;;;;12.10;94828.00;;;;7383964;19;20133;-72
2022/10/11 10:20:30;;;;;;;67.57;24.05;;;;;12.30;94838.00;;;;7388616;19;20148;-72
2022/10/11 10:23:27;;;;;;;42.28;24.02;;;;;12.20;94824.00;;;;7390295;19;20148;-73
2022/10/11 10:26:19;;;;;;;40.28;23.70;;;;;12.00;94827.00;;;;7390645;19;20482;-73
2022/10/11 10:29:08;;;;;;;45.85;21.50;;;;;12.00;94833.00;;;;7392853;19;20133;-73
2022/10/11 10:31:56;;;;;;;85.57;24.35;;;;;12.10;94829.00;;;;7388897;19;20506;-72
2022/10/11 10:35:07;;;;;;;140.60;25.30;;;;;12.10;94829.00;;;;7391834;19;20140;-72
2022/10/11 10:37:40;;;;;;;78.03;21.17;;;;;12.10;94828.00;;;;7390278;19;20144;-73
2022/10/11 10:40:35;;;;;;;95.47;21.52;;;;;12.00;94823.00;;;;7384557;19;20190;-74
2022/10/11 10:43:02;;;;;;;218.70;23.00;;;;;12.10;94831.00;;;;7384577;19;20139;-74
2022/10/11 10:46:06;;;;;;;362.13;25.58;;;;;12.00;94829.00;;;;7386314;19;20857;-73
2022/10/11 10:48:59;;;;;;;362.90;26.13;;;;;11.90;94824.00;;;;7386808;19;20522;-72
2022/10/11 10:52:17;;;;;;;172.52;20.25;;;;;12.00;94827.00;;;;7383751;19;20527;-72
2022/10/11 10:54:51;;;;;;;41.65;22.90;;;;;12.10;94826.00;;;;7378025;19;20132;-73
2022/10/11 10:57:37;;;;;;;38.83;20.08;;;;;12.20;94832.00;;;;7378373;19;20588;-72
2022/10/11 11:00:22;;;;;;;32.40;20.15;;;;;12.20;94826.00;;;;7388657;19;20141;-72
2022/10/11 11:02:59;;;;;;;39.45;21.38;;;;;12.20;94814.00;;;;7385600;19;20165;-72
2022/10/11 11:05:52;;;;;;;35.05;21.75;;;;;12.30;94820.00;;;;7387173;19;20607;-72
2022/10/11 11:08:47;;;;;;;39.85;22.45;;;;;12.40;94818.00;;;;7386035;19;20164;-73
2022/10/11 11:11:24;;;;;;;40.53;20.75;;;;;12.30;94817.00;;;;7386206;19;20208;-72
2022/10/11 11:14:26;;;;;;;41.08;21.77;;;;;12.50;94817.00;;;;7383829;19;20151;-72
2022/10/11 11:17:18;;;;;;;35.95;20.60;;;;;12.50;94822.00;;;;7385623;19;20610;-72
2022/10/11 11:20:25;;;;;;;46.95;20.73;;;;;12.30;94821.00;;;;7386486;19;20632;-72
2022/10/11 11:23:18;;;;;;;31.38;18.00;;;;;12.30;94812.00;;;;7383362;19;20245;-72
2022/10/11 11:26:48;;;;;;;39.80;22.02;;;;;12.20;94811.00;;;;7383293;19;20160;-72
2022/10/11 11:29:50;;;;;;;36.20;20.98;;;;;12.20;94807.00;;;;7387069;19;20136;-73
2022/10/11 11:32:44;;;;;;;34.42;19.08;;;;;12.30;94813.00;;;;7385354;19;20166;-72
2022/10/11 11:35:35;;;;;;;30.73;19.38;;;;;12.60;94805.00;;;;7385757;19;20156;-71
2022/10/11 11:38:12;;;;;;;36.33;20.27;;;;;12.60;94814.00;;;;7384733;19;20893;-72
2022/10/11 11:40:49;;;;;;;32.58;18.45;;;;;12.60;94809.00;;;;7383590;19;20169;-72
2022/10/11 11:43:45;;;;;;;31.70;18.90;;;;;12.60;94803.00;;;;7382066;19;20173;-74
2022/10/11 11:46:20;;;;;;;27.40;16.25;;;;;12.60;94809.00;;;;7380613;19;20156;-74
2022/10/11 11:48:58;;;;;;;29.52;17.80;;;;;12.70;94801.00;;;;7388693;19;20149;-74
2022/10/11 11:51:44;;;;;;;25.85;17.23;;;;;12.60;94799.00;;;;7391954;19;20549;-71
2022/10/11 11:54:37;;;;;;;29.45;18.25;;;;;12.70;94799.00;;;;7390463;19;20141;-73
2022/10/11 11:57:14;;;;;;;26.88;17.33;;;;;12.80;94800.00;;;;7390075;19;20463;-71
2022/10/11 12:00:06;;;;;;;25.25;16.88;;;;;12.90;94801.00;;;;7387756;19;20137;-73
2022/10/11 12:02:51;;;;;;;32.50;19.08;;;;;12.80;94786.00;;;;7381303;19;20235;-74
2022/10/11 12:05:35;;;;;;;29.65;18.75;;;;;12.90;94789.00;;;;7384574;19;20140;-73
2022/10/11 12:08:07;;;;;;;30.50;17.52;;;;;12.90;94792.00;;;;7392720;19;20156;-73
2022/10/11 12:10:50;;;;;;;28.73;17.70;;;;;12.80;94793.00;;;;7391826;19;20152;-72
2022/10/11 12:13:38;;;;;;;26.60;18.65;;;;;13.00;94788.00;;;;7392536;19;20152;-71
2022/10/11 12:16:21;;;;;;;35.08;18.10;;;;;12.80;94798.00;;;;7390381;19;20553;-73
2022/10/11 12:19:00;;;;;;;32.60;17.80;;;;;12.70;94798.00;;;;7390993;19;20725;-73
2022/10/11 12:21:42;;;;;;;23.48;16.52;;;;;12.70;94797.00;;;;7388465;19;20599;-73
2022/10/11 12:24:19;;;;;;;31.73;18.48;;;;;12.80;94800.00;;;;7390099;19;20599;-72
2022/10/11 12:27:44;;;;;;;25.10;17.02;;;;;12.60;94790.00;;;;7390151;19;20604;-73
2022/10/11 12:30:46;;;;;;;29.23;16.45;;;;;12.60;94793.00;;;;7390151;19;20252;-71
2022/10/11 12:33:46;;;;;;;28.17;16.60;;;;;12.80;94784.00;;;;7390410;19;20140;-72
2022/10/11 12:36:28;;;;;;;28.35;16.83;;;;;13.00;94785.00;;;;7390387;19;20148;-72
2022/10/11 12:39:21;;;;;;;25.90;15.77;;;;;13.00;94786.00;;;;7391105;19;20145;-72
2022/10/11 12:41:55;;;;;;;27.67;16.52;;;;;13.00;94786.00;;;;7389561;19;20679;-72
2022/10/11 12:44:32;;;;;;;30.40;18.52;;;;;13.10;94787.00;;;;7388425;19;20243;-73
2022/10/11 12:47:32;;;;;;;29.13;16.58;;;;;13.10;94791.00;;;;7391173;19;20204;-72
2022/10/11 12:50:42;;;;;;;36.45;18.25;;;;;13.00;94784.00;;;;7390430;19;20564;-72